Time,TemperatureF,DewpointF,PressureIn,WindDirection,WindDirectionDegrees,WindSpeedMPH,WindSpeedGustMPH,Humidity,HourlyPrecipIn,Conditions,Clouds,dailyrainin,SoftwareType,DateUTC
2013-06-02 00:07:00,75.1,66.0,29.86,SW,218,0.0,5.0,74,0.00,,,0.00,weatherlink.com 1.10,2013-06-02 04:07:00,
2013-06-02 00:22:00,74.8,66.0,29.86,WSW,249,0.0,4.0,74,0.00,,,0.00,weatherlink.com 1.10,2013-06-02 04:22:00,
2013-06-02 00:37:00,74.4,66.0,29.86,West,259,1.0,6.0,75,0.00,,,0.00,weatherlink.com 1.10,2013-06-02 04:37:00,
2013-06-02 00:53:00,74.1,66.0,29.86,West,279,0.0,4.0,76,0.00,,,0.00,weatherlink.com 1.10,2013-06-02 04:53:00,
2013-06-02 01:08:00,73.8,66.0,29.85,East,92,0.0,5.0,76,0.00,,,0.00,weatherlink.com 1.10,2013-06-02 05:08:00,
2013-06-02 01:23:00,73.5,66.0,29.85,SSW,202,0.0,4.0,76,0.00,,,0.00,weatherlink.com 1.10,2013-06-02 05:23:00,
2013-06-02 01:38:00,73.2,66.0,29.85,SSW,196,0.0,6.0,77,0.00,,,0.00,weatherlink.com 1.10,2013-06-02 05:38:00,
2013-06-02 01:53:00,73.0,66.0,29.85,SW,226,0.0,4.0,78,0.00,,,0.00,weatherlink.com 1.10,2013-06-02 05:53:00,
2013-06-02 02:08:00,72.7,66.0,29.84,NNE,16,0.0,3.0,78,0.00,,,0.00,weatherlink.com 1.10,2013-06-02 06:08:00,
2013-06-02 02:23:00,72.5,66.0,29.84,WSW,254,0.0,5.0,79,0.00,,,0.00,weatherlink.com 1.10,2013-06-02 06:23:00,
2013-06-02 02:38:00,72.2,66.0,29.83,NW,313,1.0,5.0,80,0.00,,,0.00,weatherlink.com 1.10,2013-06-02 06:38:00,
2013-06-02 02:53:00,71.9,65.0,29.83,West,276,1.0,4.0,80,0.00,,,0.00,weatherlink.com 1.10,2013-06-02 06:53:00,
2013-06-02 03:08:00,71.6,66.0,29.83,NW,323,0.0,6.0,81,0.00,,,0.00,weatherlink.com 1.10,2013-06-02 07:08:00,
2013-06-02 03:23:00,71.4,66.0,29.83,NE,44,0.0,5.0,82,0.00,,,0.00,weatherlink.com 1.10,2013-06-02 07:23:00,
2013-06-02 03:38:00,71.1,65.0,29.83,SW,225,3.0,5.0,82,0.00,,,0.00,weatherlink.com 1.10,2013-06-02 07:38:00,
2013-06-02 03:53:00,70.6,65.0,29.83,ESE,109,0.0,4.0,83,0.00,,,0.00,weatherlink.com 1.10,2013-06-02 07:53:00,
2013-06-02 04:08:00,70.4,65.0,29.83,ENE,77,0.0,4.0,84,0.00,,,0.00,weatherlink.com 1.10,2013-06-02 08:08:00,
2013-06-02 04:23:00,70.0,65.0,29.83,WSW,245,0.0,4.0,85,0.00,,,0.00,weatherlink.com 1.10,2013-06-02 08:23:00,
2013-06-02 04:38:00,69.7,65.0,29.83,NW,323,0.0,4.0,85,0.00,,,0.00,weatherlink.com 1.10,2013-06-02 08:38:00,
2013-06-02 04:53:00,69.5,65.0,29.83,SSW,207,1.0,3.0,85,0.00,,,0.00,weatherlink.com 1.10,2013-06-02 08:53:00,
2013-06-02 05:08:00,69.3,65.0,29.83,West,271,2.0,4.0,86,0.00,,,0.00,weatherlink.com 1.10,2013-06-02 09:08:00,
2013-06-02 05:23:00,69.1,65.0,29.84,SW,218,2.0,2.0,86,0.00,,,0.00,weatherlink.com 1.10,2013-06-02 09:23:00,
2013-06-02 05:38:00,68.9,65.0,29.84,West,272,0.0,3.0,87,0.00,,,0.00,weatherlink.com 1.10,2013-06-02 09:38:00,
2013-06-02 05:53:00,69.0,65.0,29.84,NNW,328,0.0,4.0,87,0.00,,,0.00,weatherlink.com 1.10,2013-06-02 09:53:00,
2013-06-02 06:08:00,69.2,65.0,29.84,NNE,21,0.0,2.0,87,0.00,,,0.00,weatherlink.com 1.10,2013-06-02 10:08:00,
2013-06-02 06:23:00,69.5,65.0,29.84,East,86,1.0,7.0,86,0.00,,,0.00,weatherlink.com 1.10,2013-06-02 10:23:00,
2013-06-02 06:38:00,70.0,65.0,29.84,SSW,212,0.0,10.0,85,0.00,,,0.00,weatherlink.com 1.10,2013-06-02 10:38:00,
2013-06-02 06:53:00,70.8,66.0,29.84,West,263,4.0,5.0,84,0.00,,,0.00,weatherlink.com 1.10,2013-06-02 10:53:00,
2013-06-02 07:08:00,71.8,66.0,29.84,West,267,3.0,6.0,83,0.00,,,0.00,weatherlink.com 1.10,2013-06-02 11:08:00,
2013-06-02 07:23:00,72.8,67.0,29.84,WSW,237,1.0,4.0,81,0.00,,,0.00,weatherlink.com 1.10,2013-06-02 11:23:00,
2013-06-02 07:38:00,74.0,67.0,29.83,NE,53,2.0,6.0,79,0.00,,,0.00,weatherlink.com 1.10,2013-06-02 11:38:00,
2013-06-02 07:53:00,75.0,67.0,29.83,NW,306,3.0,6.0,77,0.00,,,0.00,weatherlink.com 1.10,2013-06-02 11:53:00,
2013-06-02 08:08:00,76.3,68.0,29.83,NW,306,5.0,7.0,76,0.00,,,0.00,weatherlink.com 1.10,2013-06-02 12:08:00,
2013-06-02 08:23:00,77.1,68.0,29.83,ESE,123,1.0,7.0,74,0.00,,,0.00,weatherlink.com 1.10,2013-06-02 12:23:00,
2013-06-02 08:38:00,78.3,69.0,29.82,WSW,250,1.0,7.0,72,0.00,,,0.00,weatherlink.com 1.10,2013-06-02 12:38:00,
2013-06-02 08:53:00,78.9,69.0,29.82,West,277,1.0,8.0,72,0.00,,,0.00,weatherlink.com 1.10,2013-06-02 12:53:00,
2013-06-02 09:08:00,80.3,69.0,29.82,East,86,2.0,7.0,68,0.00,,,0.00,weatherlink.com 1.10,2013-06-02 13:08:00,
2013-06-02 09:23:00,81.3,69.0,29.81,East,84,0.0,8.0,67,0.00,,,0.00,weatherlink.com 1.10,2013-06-02 13:23:00,
2013-06-02 09:39:00,82.3,69.0,29.81,ENE,57,1.0,7.0,64,0.00,,,0.00,weatherlink.com 1.10,2013-06-02 13:39:00,
2013-06-02 09:54:00,83.0,69.0,29.80,WSW,248,3.0,8.0,63,0.00,,,0.00,weatherlink.com 1.10,2013-06-02 13:54:00,
2013-06-02 10:09:00,84.2,69.0,29.80,SE,145,0.0,9.0,60,0.00,,,0.00,weatherlink.com 1.10,2013-06-02 14:09:00,
2013-06-02 10:24:00,84.9,69.0,29.80,East,88,6.0,9.0,59,0.00,,,0.00,weatherlink.com 1.10,2013-06-02 14:24:00,
2013-06-02 10:39:00,85.8,70.0,29.80,SE,143,2.0,8.0,59,0.00,,,0.00,weatherlink.com 1.10,2013-06-02 14:39:00,
2013-06-02 10:54:00,86.8,69.0,29.80,West,272,2.0,8.0,56,0.00,,,0.00,weatherlink.com 1.10,2013-06-02 14:54:00,
2013-06-02 11:09:00,86.5,70.0,29.79,WNW,294,0.0,10.0,58,0.00,,,0.00,weatherlink.com 1.10,2013-06-02 15:09:00,
2013-06-02 11:24:00,87.4,68.0,29.79,WSW,251,6.0,12.0,53,0.00,,,0.00,weatherlink.com 1.10,2013-06-02 15:24:00,
2013-06-02 11:39:00,87.8,69.0,29.79,ESE,118,2.0,8.0,53,0.00,,,0.00,weatherlink.com 1.10,2013-06-02 15:39:00,
2013-06-02 11:54:00,88.3,67.0,29.79,WSW,245,7.0,12.0,50,0.00,,,0.00,weatherlink.com 1.10,2013-06-02 15:54:00,
2013-06-02 12:09:00,88.8,67.0,29.78,SW,226,4.0,10.0,49,0.00,,,0.00,weatherlink.com 1.10,2013-06-02 16:09:00,
2013-06-02 12:24:00,89.0,66.0,29.78,NW,315,4.0,11.0,46,0.00,,,0.00,weatherlink.com 1.10,2013-06-02 16:24:00,
2013-06-02 12:39:00,89.3,65.0,29.77,WNW,294,3.0,14.0,45,0.00,,,0.00,weatherlink.com 1.10,2013-06-02 16:39:00,
2013-06-02 12:54:00,90.3,64.0,29.77,NW,312,5.0,9.0,42,0.00,,,0.00,weatherlink.com 1.10,2013-06-02 16:54:00,
2013-06-02 13:09:00,90.4,64.0,29.76,WSW,253,5.0,13.0,42,0.00,,,0.00,weatherlink.com 1.10,2013-06-02 17:09:00,
2013-06-02 13:24:00,90.9,65.0,29.76,NW,309,3.0,9.0,43,0.00,,,0.00,weatherlink.com 1.10,2013-06-02 17:24:00,
2013-06-02 13:39:00,90.9,64.0,29.75,West,268,3.0,11.0,41,0.00,,,0.00,weatherlink.com 1.10,2013-06-02 17:39:00,
2013-06-02 13:54:00,90.8,64.0,29.75,West,260,3.0,12.0,41,0.00,,,0.00,weatherlink.com 1.10,2013-06-02 17:54:00,
2013-06-02 14:09:00,91.3,65.0,29.74,NE,53,6.0,11.0,42,0.00,,,0.00,weatherlink.com 1.10,2013-06-02 18:09:00,
2013-06-02 14:24:00,89.7,64.0,29.74,WSW,252,3.0,14.0,43,0.00,,,0.00,weatherlink.com 1.10,2013-06-02 18:24:00,
2013-06-02 14:39:00,90.6,64.0,29.74,ESE,106,4.0,13.0,42,0.00,,,0.00,weatherlink.com 1.10,2013-06-02 18:39:00,
2013-06-02 14:54:00,89.7,65.0,29.73,NW,315,4.0,19.0,44,0.00,,,0.00,weatherlink.com 1.10,2013-06-02 18:54:00,
2013-06-02 15:09:00,89.7,65.0,29.73,SW,227,3.0,14.0,44,0.00,,,0.00,weatherlink.com 1.10,2013-06-02 19:09:00,
2013-06-02 15:24:00,89.5,64.0,29.72,ESE,109,4.0,18.0,43,0.00,,,0.00,weatherlink.com 1.10,2013-06-02 19:24:00,
2013-06-02 15:39:00,88.9,64.0,29.72,SW,234,4.0,20.0,44,0.00,,,0.00,weatherlink.com 1.10,2013-06-02 19:39:00,
2013-06-02 15:54:00,89.3,65.0,29.72,West,263,4.0,20.0,44,0.00,,,0.00,weatherlink.com 1.10,2013-06-02 19:54:00,
2013-06-02 16:09:00,88.9,66.0,29.72,West,261,7.0,14.0,46,0.00,,,0.00,weatherlink.com 1.10,2013-06-02 20:09:00,
2013-06-02 16:24:00,88.6,65.0,29.72,WSW,250,2.0,21.0,45,0.00,,,0.00,weatherlink.com 1.10,2013-06-02 20:24:00,
2013-06-02 16:39:00,88.3,66.0,29.71,NNE,28,2.0,17.0,47,0.00,,,0.00,weatherlink.com 1.10,2013-06-02 20:39:00,
2013-06-02 16:54:00,87.5,66.0,29.71,WNW,297,5.0,20.0,49,0.00,,,0.00,weatherlink.com 1.10,2013-06-02 20:54:00,
2013-06-02 17:09:00,86.8,67.0,29.72,WNW,294,2.0,13.0,52,0.00,,,0.00,weatherlink.com 1.10,2013-06-02 21:09:00,
2013-06-02 17:24:00,86.4,68.0,29.71,SE,134,3.0,16.0,54,0.00,,,0.00,weatherlink.com 1.10,2013-06-02 21:24:00,
2013-06-02 17:39:00,85.5,68.0,29.71,WSW,250,8.0,11.0,56,0.00,,,0.00,weatherlink.com 1.10,2013-06-02 21:39:00,
2013-06-02 17:55:00,83.7,68.0,29.71,West,277,2.0,11.0,59,0.00,,,0.00,weatherlink.com 1.10,2013-06-02 21:55:00,
2013-06-02 18:10:00,82.5,68.0,29.72,East,90,7.0,11.0,61,0.00,,,0.00,weatherlink.com 1.10,2013-06-02 22:10:00,
2013-06-02 18:25:00,81.9,68.0,29.73,WNW,296,3.0,8.0,63,0.00,,,0.00,weatherlink.com 1.10,2013-06-02 22:25:00,
2013-06-02 18:40:00,81.5,68.0,29.74,West,259,7.0,11.0,63,0.00,,,0.00,weatherlink.com 1.10,2013-06-02 22:40:00,
2013-06-02 18:55:00,80.8,67.0,29.75,South,182,2.0,13.0,64,0.00,,,0.00,weatherlink.com 1.10,2013-06-02 22:55:00,
2013-06-02 19:10:00,80.1,67.0,29.75,SW,226,1.0,10.0,65,0.00,,,0.00,weatherlink.com 1.10,2013-06-02 23:10:00,
2013-06-02 19:25:00,79.2,67.0,29.75,SW,227,3.0,6.0,67,0.00,,,0.00,weatherlink.com 1.10,2013-06-02 23:25:00,
2013-06-02 19:40:00,78.4,67.0,29.76,NE,43,6.0,10.0,67,0.00,,,0.00,weatherlink.com 1.10,2013-06-02 23:40:00,
2013-06-02 19:55:00,77.8,66.0,29.76,SSE,148,0.0,4.0,68,0.00,,,0.00,weatherlink.com 1.10,2013-06-02 23:55:00,
2013-06-02 20:10:00,77.1,66.0,29.76,SW,234,1.0,9.0,69,0.00,,,0.00,weatherlink.com 1.10,2013-06-03 00:10:00,
2013-06-02 20:25:00,76.7,66.0,29.77,WNW,296,2.0,9.0,69,0.00,,,0.00,weatherlink.com 1.10,2013-06-03 00:25:00,
2013-06-02 20:40:00,76.3,66.0,29.77,WSW,253,7.0,9.0,70,0.00,,,0.00,weatherlink.com 1.10,2013-06-03 00:40:00,
2013-06-02 20:55:00,75.7,65.0,29.77,West,262,3.0,6.0,70,0.00,,,0.00,weatherlink.com 1.10,2013-06-03 00:55:00,
2013-06-02 21:10:00,75.3,65.0,29.78,WNW,287,2.0,6.0,70,0.00,,,0.00,weatherlink.com 1.10,2013-06-03 01:10:00,
2013-06-02 21:25:00,74.9,65.0,29.77,NW,307,3.0,9.0,71,0.00,,,0.00,weatherlink.com 1.10,2013-06-03 01:25:00,
2013-06-02 21:40:00,74.7,65.0,29.78,SW,229,0.0,6.0,71,0.00,,,0.00,weatherlink.com 1.10,2013-06-03 01:40:00,
2013-06-02 21:55:00,74.1,65.0,29.78,West,280,1.0,9.0,72,0.00,,,0.00,weatherlink.com 1.10,2013-06-03 01:55:00,
2013-06-02 22:10:00,73.5,64.0,29.78,West,276,2.0,7.0,73,0.00,,,0.00,weatherlink.com 1.10,2013-06-03 02:10:00,
2013-06-02 22:25:00,73.1,64.0,29.78,WNW,288,2.0,8.0,74,0.00,,,0.00,weatherlink.com 1.10,2013-06-03 02:25:00,
2013-06-02 22:40:00,72.7,64.0,29.78,West,281,1.0,7.0,75,0.00,,,0.00,weatherlink.com 1.10,2013-06-03 02:40:00,
2013-06-02 22:55:00,72.3,64.0,29.78,WSW,238,1.0,6.0,76,0.00,,,0.00,weatherlink.com 1.10,2013-06-03 02:55:00,
2013-06-02 23:10:00,71.7,64.0,29.78,SSW,206,0.0,7.0,77,0.00,,,0.00,weatherlink.com 1.10,2013-06-03 03:10:00,
2013-06-02 23:25:00,71.4,64.0,29.79,NW,317,1.0,6.0,78,0.00,,,0.00,weatherlink.com 1.10,2013-06-03 03:25:00,
2013-06-02 23:40:00,71.0,64.0,29.79,WNW,292,0.0,4.0,78,0.00,,,0.00,weatherlink.com 1.10,2013-06-03 03:40:00,
2013-06-02 23:55:00,70.7,64.0,29.79,NNE,19,1.0,3.0,79,0.00,,,0.00,weatherlink.com 1.10,2013-06-03 03:55:00,